Time;durP1;ratioP1;P1;durP2;ratioP2;P2;SDS_P1;SDS_P2;PMS_P1;PMS_P2;Temp;Humidity;BMP_temperature;BMP_pressure;BME280_temperature;BME280_humidity;BME280_pressure;Samples;Min_cycle;Max_cycle;Signal;HPM_P1;HPM_P2
2023/04/29 00:00:06;;;;;;;2.17;1.67;;;12.70;99.40;;;;;;6219117;23;20015;-93
2023/04/29 00:02:32;;;;;;;2.40;1.55;;;12.70;99.40;;;;;;6219548;23;20418;-92
2023/04/29 00:04:58;;;;;;;4.45;1.73;;;12.70;99.40;;;;;;6219610;23;20081;-92
2023/04/29 00:07:24;;;;;;;1.77;1.67;;;12.70;99.40;;;;;;6219426;23;20049;-92
2023/04/29 00:09:50;;;;;;;3.47;1.73;;;12.80;99.40;;;;;;6219152;23;20666;-92
2023/04/29 00:12:15;;;;;;;1.70;1.60;;;12.70;99.40;;;;;;6219185;23;20008;-93
2023/04/29 00:14:42;;;;;;;3.42;1.88;;;12.70;99.40;;;;;;6219014;23;20004;-92
2023/04/29 00:17:08;;;;;;;2.78;1.50;;;12.70;99.40;;;;;;6219655;23;20544;-92
2023/04/29 00:19:34;;;;;;;3.70;1.88;;;12.70;99.40;;;;;;6218582;23;20008;-91
2023/04/29 00:22:00;;;;;;;2.17;1.73;;;12.70;99.70;;;;;;6219059;23;20042;-92
2023/04/29 00:24:26;;;;;;;2.78;1.67;;;12.70;99.40;;;;;;6218796;23;20011;-92
2023/04/29 00:26:52;;;;;;;1.50;1.30;;;12.70;99.40;;;;;;6219201;23;20363;-92
2023/04/29 00:29:17;;;;;;;1.60;1.17;;;12.70;99.30;;;;;;6218991;23;20004;-92
2023/04/29 00:31:44;;;;;;;2.05;1.58;;;12.80;99.40;;;;;;6218094;23;20008;-92
2023/04/29 00:34:10;;;;;;;7.25;1.90;;;12.70;99.40;;;;;;6218717;23;20429;-91
2023/04/29 00:36:36;;;;;;;3.03;1.52;;;12.70;99.40;;;;;;6219174;23;20011;-92
2023/04/29 00:39:02;;;;;;;1.83;1.40;;;12.70;99.30;;;;;;6218585;23;20024;-92
2023/04/29 00:41:30;;;;;;;1.83;1.52;;;12.70;99.30;;;;;;6218199;23;20447;-91
2023/04/29 00:43:56;;;;;;;1.67;1.48;;;12.70;99.30;;;;;;6218867;23;20065;-92
2023/04/29 00:46:21;;;;;;;1.48;1.38;;;12.70;99.30;;;;;;6219304;23;20447;-92
2023/04/29 00:48:48;;;;;;;5.43;1.52;;;12.70;99.30;;;;;;6218399;23;20008;-92
2023/04/29 00:51:15;;;;;;;2.22;1.75;;;12.70;99.30;;;;;;6218550;23;20007;-92
2023/04/29 00:53:41;;;;;;;4.57;2.42;;;12.70;99.30;;;;;;6218411;23;20004;-92
2023/04/29 00:56:07;;;;;;;2.70;2.00;;;12.70;99.30;;;;;;6219152;23;20000;-92
2023/04/29 00:58:34;;;;;;;2.78;2.03;;;12.70;99.30;;;;;;6219258;23;20007;-92
2023/04/29 01:01:03;;;;;;;4.60;2.35;;;12.70;99.30;;;;;;6218596;23;20007;-92
2023/04/29 01:03:32;;;;;;;5.40;1.92;;;12.70;99.30;;;;;;6218252;23;20000;-91
2023/04/29 01:06:27;;;;;;;2.72;1.70;;;12.70;99.30;;;;;;6218620;23;20000;-92
2023/04/29 01:09:12;;;;;;;1.83;1.50;;;12.70;99.30;;;;;;6218824;23;20007;-92
2023/04/29 01:11:57;;;;;;;3.72;2.13;;;12.70;99.30;;;;;;6217818;23;20082;-92
2023/04/29 01:14:24;;;;;;;2.08;1.73;;;12.70;99.20;;;;;;6218814;23;20331;-91
2023/04/29 01:17:04;;;;;;;3.53;1.80;;;12.70;99.30;;;;;;6218295;23;20008;-92
2023/04/29 01:19:49;;;;;;;1.65;1.48;;;12.70;99.30;;;;;;6218543;23;20445;-92
2023/04/29 01:22:16;;;;;;;2.00;1.48;;;12.70;99.20;;;;;;6216854;23;20425;-93
2023/04/29 01:24:42;;;;;;;5.53;1.70;;;12.70;99.20;;;;;;6218508;23;20000;-91
2023/04/29 01:27:52;;;;;;;1.63;1.52;;;12.70;99.30;;;;;;6218893;23;20446;-92
2023/04/29 01:30:38;;;;;;;2.45;1.50;;;12.70;99.20;;;;;;6093380;23;20034;-92
2023/04/29 01:33:25;;;;;;;3.50;1.30;;;12.70;99.20;;;;;;6216925;23;20043;-91
2023/04/29 01:36:12;;;;;;;1.60;1.35;;;12.70;99.20;;;;;;6218394;23;20046;-91
2023/04/29 01:38:57;;;;;;;4.85;1.45;;;12.70;99.20;;;;;;6219501;23;20090;-91
2023/04/29 01:41:51;;;;;;;1.83;1.58;;;12.70;99.20;;;;;;6218038;23;20374;-92
2023/04/29 01:44:22;;;;;;;2.45;1.30;;;12.70;99.20;;;;;;6218958;23;20003;-92
2023/04/29 01:46:52;;;;;;;1.30;1.20;;;12.70;99.20;;;;;;6218880;23;20142;-92
2023/04/29 01:49:25;;;;;;;;;;;12.60;99.20;;;;;;6219936;23;20035;-91
2023/04/29 01:51:51;;;;;;;1.35;1.25;;;12.70;99.20;;;;;;6219159;23;19899;-91
2023/04/29 01:54:16;;;;;;;2.47;1.88;;;12.60;99.20;;;;;;6219222;23;20329;-91
2023/04/29 01:56:43;;;;;;;2.22;1.73;;;12.80;99.30;;;;;;6219928;23;20024;-91
2023/04/29 01:59:08;;;;;;;3.63;2.20;;;12.70;99.20;;;;;;6220166;23;20438;-92
2023/04/29 02:01:34;;;;;;;2.33;1.77;;;12.60;99.20;;;;;;6218746;23;20006;-91
2023/04/29 02:04:00;;;;;;;3.75;2.15;;;12.70;99.20;;;;;;6219859;23;20035;-91
2023/04/29 02:06:26;;;;;;;2.88;1.88;;;12.70;99.20;;;;;;6218430;23;20008;-91
2023/04/29 02:08:52;;;;;;;5.32;1.80;;;12.60;99.20;;;;;;6220481;23;20012;-91
2023/04/29 02:11:18;;;;;;;3.80;1.65;;;12.70;99.20;;;;;;6218044;23;20584;-91
2023/04/29 02:13:43;;;;;;;1.95;1.60;;;12.60;99.20;;;;;;6218667;23;20629;-91
2023/04/29 02:16:10;;;;;;;3.72;2.03;;;12.60;99.20;;;;;;6218616;23;20008;-91
2023/04/29 02:18:36;;;;;;;2.72;2.17;;;12.60;99.20;;;;;;6219068;23;20000;-91
2023/04/29 02:21:02;;;;;;;2.75;2.10;;;12.60;99.20;;;;;;6219843;23;20004;-92
2023/04/29 02:23:28;;;;;;;3.85;2.13;;;12.60;99.20;;;;;;6220304;23;20004;-92
2023/04/29 02:25:54;;;;;;;7.85;2.03;;;12.70;99.20;;;;;;6220200;23;20000;-91
2023/04/29 02:28:20;;;;;;;2.50;1.83;;;12.60;99.20;;;;;;6195865;23;20019;-91
2023/04/29 02:30:45;;;;;;;2.72;1.80;;;12.60;99.20;;;;;;6219701;23;20303;-91
2023/04/29 02:33:11;;;;;;;3.10;2.00;;;12.60;99.20;;;;;;6220331;23;20433;-91
2023/04/29 02:35:37;;;;;;;1.80;1.60;;;12.60;99.10;;;;;;6220033;23;20454;-92
2023/04/29 02:38:02;;;;;;;6.32;1.50;;;12.60;99.10;;;;;;6219604;23;20012;-91
2023/04/29 02:40:28;;;;;;;2.63;2.20;;;12.60;99.20;;;;;;6219898;23;20010;-91
2023/04/29 02:42:54;;;;;;;2.13;1.73;;;12.60;99.10;;;;;;6220096;23;20446;-91
2023/04/29 02:45:19;;;;;;;1.75;1.52;;;12.60;99.10;;;;;;6220635;23;20000;-92
2023/04/29 02:47:45;;;;;;;2.33;1.73;;;12.60;99.10;;;;;;6220013;23;20138;-92
2023/04/29 02:50:10;;;;;;;1.50;1.33;;;12.60;99.10;;;;;;6219994;23;20007;-92
2023/04/29 02:52:36;;;;;;;6.28;1.75;;;12.80;99.20;;;;;;6219736;23;20012;-92
2023/04/29 02:55:02;;;;;;;3.08;2.17;;;12.50;99.10;;;;;;6219724;23;20058;-92
2023/04/29 02:57:28;;;;;;;11.65;2.63;;;12.60;99.10;;;;;;6219742;23;20050;-91
2023/04/29 02:59:54;;;;;;;6.38;2.33;;;12.80;99.20;;;;;;6219894;23;20004;-92
2023/04/29 03:02:20;;;;;;;2.13;1.75;;;12.60;99.10;;;;;;6219016;23;20004;-92
2023/04/29 03:04:45;;;;;;;7.70;1.95;;;12.60;99.10;;;;;;6219620;23;20429;-92
2023/04/29 03:07:11;;;;;;;9.30;2.88;;;12.60;99.10;;;;;;6219833;23;20422;-92
2023/04/29 03:09:37;;;;;;;5.35;2.33;;;12.60;99.10;;;;;;6219857;23;20433;-92
2023/04/29 03:12:03;;;;;;;5.25;2.35;;;13.30;99.30;;;;;;6219525;23;20464;-92
2023/04/29 03:14:28;;;;;;;4.28;2.53;;;12.60;99.10;;;;;;6219554;23;20087;-92
2023/04/29 03:16:55;;;;;;;1.92;1.60;;;12.60;99.10;;;;;;6218769;23;20008;-92
2023/04/29 03:19:21;;;;;;;1.50;1.40;;;12.60;99.10;;;;;;6220074;23;20011;-92
2023/04/29 03:21:47;;;;;;;5.78;1.60;;;12.60;99.10;;;;;;6219008;23;20179;-91
2023/04/29 03:24:13;;;;;;;3.38;1.85;;;12.60;99.10;;;;;;6219962;23;20091;-91
2023/04/29 03:26:39;;;;;;;5.50;1.50;;;12.60;99.10;;;;;;6219751;23;20015;-92
2023/04/29 03:29:05;;;;;;;2.30;1.77;;;13.80;99.40;;;;;;6219591;23;20083;-92
2023/04/29 03:31:30;;;;;;;2.55;1.60;;;12.60;99.10;;;;;;6219782;23;20087;-92
2023/04/29 03:33:56;;;;;;;1.67;1.50;;;12.50;99.10;;;;;;6219484;23;20008;-92
2023/04/29 03:36:22;;;;;;;1.92;1.50;;;12.60;99.10;;;;;;6219443;23;20015;-92
2023/04/29 03:38:47;;;;;;;2.35;1.10;;;12.50;99.00;;;;;;6219526;23;20004;-92
2023/04/29 03:41:13;;;;;;;1.77;1.23;;;12.60;99.10;;;;;;6219397;23;20015;-92
2023/04/29 03:43:39;;;;;;;3.15;1.95;;;12.50;99.40;;;;;;6219718;23;20016;-92
2023/04/29 03:46:05;;;;;;;2.15;1.42;;;12.50;99.00;;;;;;6219351;23;20031;-92
2023/04/29 03:48:31;;;;;;;2.25;1.35;;;12.50;99.00;;;;;;6218267;23;20003;-92
2023/04/29 03:50:57;;;;;;;1.50;1.38;;;12.60;99.10;;;;;;6219061;23;20054;-92
2023/04/29 03:53:23;;;;;;;2.22;1.63;;;12.50;99.00;;;;;;6219648;23;20329;-92
2023/04/29 03:55:49;;;;;;;1.70;1.42;;;12.50;99.00;;;;;;6219775;23;20008;-92
2023/04/29 03:58:15;;;;;;;2.58;1.30;;;12.50;99.00;;;;;;6219064;23;20410;-92
2023/04/29 04:00:41;;;;;;;1.92;1.40;;;12.50;99.00;;;;;;6219406;23;20036;-91
2023/04/29 04:03:07;;;;;;;2.92;1.60;;;12.50;99.00;;;;;;6218997;23;20083;-92
2023/04/29 04:05:33;;;;;;;4.10;2.53;;;12.50;99.00;;;;;;6219308;23;20315;-92
2023/04/29 04:07:59;;;;;;;6.95;2.33;;;12.50;99.00;;;;;;6219099;23;20065;-92
2023/04/29 04:10:25;;;;;;;7.30;4.25;;;12.50;99.00;;;;;;6218558;23;20036;-93
2023/04/29 04:12:51;;;;;;;10.60;5.20;;;12.50;99.00;;;;;;6219307;23;20058;-91
2023/04/29 04:15:16;;;;;;;9.77;4.20;;;12.50;99.00;;;;;;6217682;23;20075;-92
2023/04/29 04:17:42;;;;;;;6.70;3.67;;;12.50;99.00;;;;;;6218567;23;20369;-92
2023/04/29 04:20:08;;;;;;;4.80;2.92;;;12.50;99.00;;;;;;6219116;23;20361;-92
2023/04/29 04:22:34;;;;;;;3.25;2.55;;;12.50;99.00;;;;;;6219001;23;20008;-92
2023/04/29 04:25:00;;;;;;;7.57;2.08;;;12.50;99.00;;;;;;6218759;23;20430;-92
2023/04/29 04:27:25;;;;;;;65.30;3.20;;;12.50;99.00;;;;;;6218850;23;20035;-92
2023/04/29 04:29:54;;;;;;;46.78;2.72;;;12.00;98.80;;;;;;6219022;23;20008;-92
2023/04/29 04:32:28;;;;;;;5.22;2.25;;;12.50;99.00;;;;;;6193827;23;20016;-92
2023/04/29 04:34:53;;;;;;;13.27;2.00;;;12.50;99.00;;;;;;6218824;23;20015;-93
2023/04/29 04:37:19;;;;;;;2.35;1.60;;;12.50;99.00;;;;;;6218921;23;20007;-92
2023/04/29 04:39:45;;;;;;;6.43;1.83;;;12.50;99.00;;;;;;6218630;23;20490;-92
2023/04/29 04:42:11;;;;;;;2.92;1.98;;;12.50;99.00;;;;;;6218364;23;20035;-92
2023/04/29 04:44:37;;;;;;;3.15;2.40;;;12.70;99.00;;;;;;6219017;23;20001;-92
2023/04/29 04:47:02;;;;;;;4.82;2.47;;;12.50;99.00;;;;;;6218838;23;20001;-92
2023/04/29 04:49:28;;;;;;;3.95;2.38;;;12.50;99.00;;;;;;6218807;23;20008;-93
2023/04/29 04:51:54;;;;;;;2.83;2.30;;;12.50;99.00;;;;;;6218121;23;20039;-92
2023/04/29 04:54:19;;;;;;;2.63;2.00;;;12.90;99.10;;;;;;6218744;23;20054;-92
2023/04/29 04:56:47;;;;;;;6.43;2.88;;;12.50;98.90;;;;;;6218554;23;20015;-92
2023/04/29 04:59:13;;;;;;;2.60;2.10;;;12.50;98.90;;;;;;6218576;23;19997;-92
2023/04/29 05:01:38;;;;;;;3.78;2.20;;;12.50;98.90;;;;;;6193513;23;20019;-92
2023/04/29 05:04:04;;;;;;;4.32;1.95;;;12.50;99.00;;;;;;6218836;23;20554;-92
2023/04/29 05:06:30;;;;;;;3.30;2.10;;;12.50;98.90;;;;;;6218300;23;20011;-92
2023/04/29 05:08:56;;;;;;;2.97;2.30;;;12.90;99.00;;;;;;6218307;23;20008;-92
2023/04/29 05:11:21;;;;;;;5.45;2.50;;;12.50;98.90;;;;;;6217904;23;20091;-92
2023/04/29 05:13:48;;;;;;;3.85;1.92;;;12.50;98.90;;;;;;6218315;23;20315;-92
2023/04/29 05:16:14;;;;;;;3.75;2.35;;;12.50;98.90;;;;;;6218397;23;20015;-93
2023/04/29 05:18:39;;;;;;;2.63;2.10;;;12.50;98.90;;;;;;6218601;23;20337;-92
2023/04/29 05:21:05;;;;;;;5.60;2.63;;;12.50;98.90;;;;;;6218084;23;20004;-92
2023/04/29 05:23:31;;;;;;;7.88;2.28;;;12.50;98.80;;;;;;6219295;23;20004;-92
2023/04/29 05:25:57;;;;;;;5.93;3.88;;;12.50;98.80;;;;;;6219022;23;20004;-93
2023/04/29 05:28:22;;;;;;;11.00;4.22;;;12.50;98.80;;;;;;6218980;23;20004;-91
2023/04/29 05:30:51;;;;;;;6.45;3.72;;;12.50;98.80;;;;;;6218406;23;20004;-92
2023/04/29 05:33:20;;;;;;;4.97;3.15;;;12.50;98.80;;;;;;6218402;23;20028;-92
2023/04/29 05:35:45;;;;;;;5.22;2.95;;;12.50;98.80;;;;;;6218185;23;20015;-91
2023/04/29 05:38:11;;;;;;;4.07;2.60;;;12.50;98.80;;;;;;6217948;23;20009;-93
2023/04/29 05:40:37;;;;;;;3.70;2.55;;;12.60;98.80;;;;;;6192860;23;20038;-92
2023/04/29 05:43:03;;;;;;;3.72;2.67;;;12.60;99.20;;;;;;6193653;23;20004;-91
2023/04/29 05:45:37;;;;;;;5.25;3.15;;;12.60;99.30;;;;;;6245541;23;20446;-92
2023/04/29 05:48:03;;;;;;;4.80;3.30;;;12.60;99.00;;;;;;6218152;23;20008;-92
2023/04/29 05:50:28;;;;;;;3.55;2.35;;;12.60;98.90;;;;;;6217528;23;20005;-92
2023/04/29 05:52:55;;;;;;;5.82;2.35;;;12.60;98.90;;;;;;6218974;23;20023;-91
2023/04/29 05:55:21;;;;;;;4.05;2.40;;;12.70;98.90;;;;;;6220943;23;20085;-92
2023/04/29 05:57:46;;;;;;;3.67;2.13;;;12.70;98.90;;;;;;6220038;23;20000;-93
2023/04/29 06:00:12;;;;;;;3.72;2.50;;;12.70;98.90;;;;;;6220061;23;19996;-92
2023/04/29 06:02:41;;;;;;;2.80;2.33;;;12.70;98.90;;;;;;6219240;23;20066;-92
2023/04/29 06:05:08;;;;;;;2.95;2.17;;;12.70;98.90;;;;;;6221178;23;20560;-93
2023/04/29 06:07:33;;;;;;;4.55;2.42;;;12.80;99.00;;;;;;6220551;23;20008;-91
2023/04/29 06:09:59;;;;;;;9.13;3.10;;;12.80;99.00;;;;;;6219717;23;20460;-93
2023/04/29 06:12:25;;;;;;;4.45;3.33;;;12.90;99.00;;;;;;6219627;23;20004;-93
2023/04/29 06:14:51;;;;;;;4.55;2.70;;;12.80;99.00;;;;;;6220337;23;20018;-93
2023/04/29 06:17:16;;;;;;;5.75;3.65;;;12.80;99.00;;;;;;6219703;23;20075;-93
2023/04/29 06:19:42;;;;;;;3.85;2.70;;;12.80;99.00;;;;;;6219614;23;20024;-94
2023/04/29 06:22:11;;;;;;;5.40;3.45;;;13.00;99.00;;;;;;6220220;23;20000;-94
2023/04/29 06:24:36;;;;;;;9.48;3.22;;;12.80;98.90;;;;;;6220011;23;20000;-94
2023/04/29 06:27:03;;;;;;;4.28;2.72;;;12.90;98.90;;;;;;6219962;23;20015;-93
2023/04/29 06:29:32;;;;;;;3.58;2.63;;;12.90;98.90;;;;;;6220900;23;20472;-94
2023/04/29 06:31:58;;;;;;;4.50;3.10;;;12.90;98.90;;;;;;6220388;23;20004;-95
2023/04/29 06:34:27;;;;;;;4.60;2.70;;;12.90;98.90;;;;;;6220467;23;20000;-94
2023/04/29 06:36:52;;;;;;;6.68;2.95;;;13.00;98.90;;;;;;6220211;23;20008;-95
2023/04/29 06:39:18;;;;;;;4.03;3.05;;;13.00;98.90;;;;;;6220251;23;20007;-95
2023/04/29 06:41:44;;;;;;;5.72;3.22;;;13.00;98.80;;;;;;6220074;23;20008;-95
2023/04/29 06:44:12;;;;;;;4.60;3.03;;;13.00;98.90;;;;;;6219757;23;20004;-95
2023/04/29 06:46:38;;;;;;;8.32;3.10;;;13.00;98.80;;;;;;6220013;23;20005;-95
2023/04/29 06:49:05;;;;;;;2.92;2.63;;;13.00;98.80;;;;;;6218608;23;20096;-95
2023/04/29 06:51:36;;;;;;;5.28;3.35;;;13.10;99.10;;;;;;6194738;23;20016;-95
2023/04/29 06:54:06;;;;;;;4.60;3.17;;;13.10;98.80;;;;;;6195159;23;20114;-95
2023/04/29 06:56:32;;;;;;;5.55;3.80;;;13.10;98.70;;;;;;6194112;23;20027;-95
2023/04/29 07:02:12;;;;;;;6.95;3.97;;;13.20;98.70;;;;;;6103092;23;20466;-96
2023/04/29 07:04:52;;;;;;;7.53;3.90;;;13.20;98.60;;;;;;6053227;23;20010;-95
2023/04/29 07:07:26;;;;;;;7.00;3.47;;;13.20;98.60;;;;;;6100610;23;20006;-96
2023/04/29 07:10:29;;;;;;;6.50;3.58;;;13.30;98.60;;;;;;6075694;23;20015;-96
2023/04/29 07:14:02;;;;;;;;;;;;;;;;;;;;;
2023/04/29 07:16:36;;;;;;;3.25;2.22;;;13.40;98.90;;;;;;6038999;23;20090;-96
2023/04/29 07:19:09;;;;;;;3.38;2.28;;;13.40;99.10;;;;;;6020754;23;20038;-96
2023/04/29 07:21:44;;;;;;;2.70;1.40;;;13.50;99.10;;;;;;6039194;23;20055;-95
2023/04/29 07:24:27;;;;;;;2.60;1.92;;;13.50;99.20;;;;;;6001097;23;20005;-94
2023/04/29 07:27:36;;;;;;;2.15;1.55;;;13.60;99.10;;;;;;6005620;23;20016;-96
2023/04/29 07:30:31;;;;;;;1.92;1.33;;;13.80;99.20;;;;;;5981543;24;20015;-96
2023/04/29 07:33:00;;;;;;;5.55;1.75;;;13.60;99.00;;;;;;5981781;24;20012;-96
2023/04/29 08:57:43;;;;;;;2.60;1.50;;;14.60;96.50;;;;;;6188264;22;20020;-96
2023/04/29 09:00:18;;;;;;;3.20;1.20;;;14.60;96.40;;;;;;6158439;23;20088;-95
2023/04/29 09:03:23;;;;;;;0.98;0.80;;;14.70;96.40;;;;;;6159717;23;20008;-95
2023/04/29 09:06:33;;;;;;;1.15;0.88;;;14.70;96.40;;;;;;6185899;23;20502;-96
2023/04/29 09:09:02;;;;;;;1.10;1.00;;;14.70;96.30;;;;;;6185846;23;20005;-96
2023/04/29 09:11:34;;;;;;;2.35;1.17;;;14.70;96.20;;;;;;6185922;23;20005;-95
2023/04/29 09:14:04;;;;;;;0.80;0.80;;;14.80;96.10;;;;;;6114971;23;20100;-96
2023/04/29 09:16:36;;;;;;;1.10;1.00;;;14.80;96.10;;;;;;6160848;23;20004;-96
2023/04/29 09:19:45;;;;;;;;;;;;;;;;;;;;;
2023/04/29 09:22:13;;;;;;;1.02;0.90;;;14.80;96.00;;;;;;6184567;23;20084;-96
2023/04/29 09:24:39;;;;;;;1.20;1.10;;;14.80;95.90;;;;;;6133852;23;20045;-96
2023/04/29 09:27:33;;;;;;;1.48;0.90;;;14.80;95.80;;;;;;6184548;23;20335;-95
2023/04/29 09:30:03;;;;;;;1.17;0.88;;;14.90;95.80;;;;;;6158067;23;20008;-96
2023/04/29 09:32:32;;;;;;;0.95;0.95;;;14.90;95.70;;;;;;6133779;23;20036;-96
2023/04/29 09:34:58;;;;;;;0.80;0.80;;;14.90;95.60;;;;;;6158268;23;20029;-96
2023/04/29 09:37:26;;;;;;;2.58;0.80;;;14.90;95.60;;;;;;6158442;23;20044;-95
2023/04/29 09:39:57;;;;;;;3.42;0.90;;;14.90;95.50;;;;;;6159375;23;20339;-96
2023/04/29 09:42:28;;;;;;;1.92;0.90;;;15.00;95.40;;;;;;6157343;23;20434;-95
2023/04/29 09:45:11;;;;;;;1.77;1.63;;;15.00;95.30;;;;;;6160632;23;20072;-96
2023/04/29 09:48:24;;;;;;;1.63;1.48;;;15.00;95.20;;;;;;6165705;23;20073;-96
2023/04/29 09:51:19;;;;;;;1.92;1.70;;;15.40;95.40;;;;;;6003627;23;20030;-96
2023/04/29 09:53:45;;;;;;;3.72;1.73;;;15.00;95.10;;;;;;6040984;23;20086;-95
2023/04/29 09:56:55;;;;;;;3.10;1.55;;;15.10;95.10;;;;;;6012578;23;20015;-96
2023/04/29 09:59:28;;;;;;;4.88;1.40;;;15.00;95.00;;;;;;6040225;23;20031;-96
2023/04/29 10:02:19;;;;;;;1.95;1.50;;;15.00;95.10;;;;;;6043031;23;20075;-96
2023/04/29 10:04:56;;;;;;;2.83;1.65;;;15.00;95.10;;;;;;6041437;23;20031;-95
2023/04/29 10:07:26;;;;;;;1.98;1.77;;;15.00;95.00;;;;;;6036085;23;20007;-94
2023/04/29 10:09:58;;;;;;;3.80;1.30;;;15.00;95.00;;;;;;6036408;23;20005;-95
2023/04/29 10:12:27;;;;;;;1.42;1.30;;;15.10;95.00;;;;;;6039700;23;20022;-96
2023/04/29 10:15:26;;;;;;;2.70;2.07;;;15.10;95.00;;;;;;6037847;23;20509;-94
2023/04/29 10:18:03;;;;;;;2.05;1.00;;;15.10;95.10;;;;;;6035675;23;20258;-95
2023/04/29 10:20:30;;;;;;;1.23;1.13;;;15.00;95.00;;;;;;6048705;23;20007;-95
2023/04/29 10:23:21;;;;;;;8.60;2.00;;;15.00;94.90;;;;;;6161590;23;19982;-96
2023/04/29 10:26:13;;;;;;;2.05;1.35;;;15.10;95.00;;;;;;6128359;23;20002;-96
2023/04/29 10:28:41;;;;;;;2.38;1.75;;;15.00;94.80;;;;;;6129924;23;20001;-95
2023/04/29 10:31:13;;;;;;;6.38;1.67;;;15.00;94.80;;;;;;6135122;23;20034;-96
2023/04/29 10:33:44;;;;;;;1.75;1.50;;;15.00;94.90;;;;;;6128416;23;20014;-96
2023/04/29 10:36:11;;;;;;;2.22;1.30;;;15.00;94.70;;;;;;6128425;23;20005;-95
2023/04/29 10:39:08;;;;;;;1.17;0.95;;;15.00;94.80;;;;;;6104594;23;20021;-95
2023/04/29 10:41:47;;;;;;;1.90;1.20;;;15.00;94.90;;;;;;6129918;23;20409;-96
2023/04/29 10:44:13;;;;;;;4.30;1.10;;;14.90;94.90;;;;;;6129638;23;20005;-95
2023/04/29 10:46:39;;;;;;;0.80;0.80;;;15.00;94.90;;;;;;6153978;23;20343;-93
2023/04/29 10:49:11;;;;;;;1.40;1.20;;;14.90;94.90;;;;;;6157590;23;20479;-96
2023/04/29 10:52:05;;;;;;;1.30;1.20;;;14.90;95.00;;;;;;6132092;23;20037;-95
2023/04/29 10:55:14;;;;;;;2.63;1.40;;;14.90;94.90;;;;;;6133478;23;20001;-95
2023/04/29 10:57:43;;;;;;;1.40;1.30;;;15.00;94.80;;;;;;6191656;23;20009;-96
2023/04/29 11:00:27;;;;;;;1.65;1.50;;;14.90;94.80;;;;;;6140127;23;20423;-96
2023/04/29 11:02:59;;;;;;;1.35;1.25;;;14.90;94.80;;;;;;6192866;23;20009;-96
2023/04/29 11:05:46;;;;;;;1.92;1.30;;;14.90;94.90;;;;;;6166270;23;20001;-95
2023/04/29 11:08:23;;;;;;;2.78;1.00;;;14.90;94.70;;;;;;6161702;23;20040;-95
2023/04/29 11:11:35;;;;;;;1.60;0.95;;;14.80;94.60;;;;;;6186944;23;20096;-95
2023/04/29 11:14:02;;;;;;;2.15;1.10;;;14.80;94.70;;;;;;6187748;23;20024;-94
2023/04/29 11:16:30;;;;;;;2.58;1.20;;;14.80;94.70;;;;;;6135708;23;20061;-96
2023/04/29 11:19:22;;;;;;;3.28;1.10;;;14.70;94.70;;;;;;6186142;23;20001;-96
2023/04/29 11:22:08;;;;;;;1.65;1.38;;;14.70;94.80;;;;;;6162004;23;20020;-95
2023/04/29 11:24:41;;;;;;;2.92;1.33;;;14.70;94.90;;;;;;6185402;23;20071;-96
2023/04/29 11:27:10;;;;;;;2.58;1.45;;;14.70;94.90;;;;;;6167034;23;20009;-96
2023/04/29 11:29:39;;;;;;;1.77;1.20;;;14.70;95.00;;;;;;6140283;23;20063;-93
2023/04/29 11:32:10;;;;;;;3.60;1.30;;;14.70;94.80;;;;;;6187088;23;20422;-94
2023/04/29 11:34:38;;;;;;;1.65;1.38;;;14.70;94.80;;;;;;6185770;23;20386;-95
2023/04/29 11:37:13;;;;;;;1.25;1.00;;;15.30;95.00;;;;;;6187677;23;20009;-96
2023/04/29 11:39:38;;;;;;;1.10;1.00;;;14.70;94.90;;;;;;6138236;23;20033;-95
2023/04/29 11:42:11;;;;;;;0.70;0.70;;;14.70;94.80;;;;;;6188918;23;20485;-95
2023/04/29 11:45:17;;;;;;;2.05;0.95;;;14.70;94.90;;;;;;6160202;23;20427;-94
2023/04/29 11:47:44;;;;;;;0.90;0.90;;;14.80;94.90;;;;;;6160042;23;20048;-93
2023/04/29 11:50:11;;;;;;;2.45;1.00;;;14.70;94.80;;;;;;6111036;23;20095;-95
2023/04/29 11:52:39;;;;;;;2.20;1.30;;;14.70;94.90;;;;;;6135468;23;20013;-94
2023/04/29 11:55:07;;;;;;;0.85;0.85;;;14.80;94.80;;;;;;6159681;23;20013;-95
2023/04/29 11:58:13;;;;;;;2.97;1.20;;;14.70;94.80;;;;;;6135563;23;20017;-94
2023/04/29 12:00:39;;;;;;;0.93;0.93;;;14.70;94.90;;;;;;6159102;23;20008;-95
2023/04/29 12:03:15;;;;;;;1.42;1.23;;;14.70;94.90;;;;;;6140560;23;20045;-95
2023/04/29 12:06:02;;;;;;;2.35;1.00;;;15.10;95.20;;;;;;6161367;23;20638;-95
2023/04/29 12:08:39;;;;;;;1.77;1.10;;;14.70;95.10;;;;;;6165264;23;20001;-96
2023/04/29 12:11:24;;;;;;;6.28;1.20;;;15.10;95.20;;;;;;6145696;23;20020;-95
2023/04/29 12:14:01;;;;;;;3.85;1.08;;;15.30;95.20;;;;;;6164777;23;20032;-96
2023/04/29 12:16:31;;;;;;;3.10;1.40;;;14.70;95.00;;;;;;6166112;23;20032;-95
2023/04/29 12:18:57;;;;;;;4.22;1.30;;;14.70;95.00;;;;;;6136452;23;20028;-95
2023/04/29 12:21:36;;;;;;;1.95;1.23;;;14.70;95.00;;;;;;6163952;23;20009;-96
2023/04/29 12:24:02;;;;;;;1.38;1.25;;;14.90;94.90;;;;;;6137268;23;20032;-94
2023/04/29 12:26:31;;;;;;;1.35;1.25;;;14.70;94.80;;;;;;6187104;23;20312;-94
2023/04/29 12:29:09;;;;;;;1.48;1.30;;;14.70;94.90;;;;;;6188753;23;20080;-94
2023/04/29 12:31:55;;;;;;;1.60;1.10;;;14.70;94.90;;;;;;6140004;23;20088;-94
2023/04/29 12:34:27;;;;;;;1.02;0.93;;;14.70;95.00;;;;;;6134913;23;20435;-95
2023/04/29 12:37:24;;;;;;;2.03;1.20;;;14.70;94.90;;;;;;6138670;23;20016;-95
2023/04/29 12:39:51;;;;;;;1.27;1.17;;;14.70;94.90;;;;;;6185011;23;20001;-94
2023/04/29 12:42:17;;;;;;;2.00;1.25;;;14.70;94.90;;;;;;6186291;23;20127;-94
2023/04/29 12:45:06;;;;;;;1.42;1.20;;;14.70;94.90;;;;;;6138169;23;20012;-95
2023/04/29 12:47:58;;;;;;;3.30;1.20;;;14.70;94.90;;;;;;6141463;23;20035;-96
2023/04/29 12:50:36;;;;;;;1.33;0.90;;;14.90;95.00;;;;;;6188029;23;20005;-93
2023/04/29 12:53:07;;;;;;;2.47;1.35;;;14.60;94.90;;;;;;6160740;23;20030;-94
2023/04/29 12:55:41;;;;;;;2.00;1.02;;;14.60;94.90;;;;;;6136080;23;20023;-93
2023/04/29 12:58:13;;;;;;;2.67;1.33;;;14.60;94.90;;;;;;6185501;23;20001;-94
2023/04/29 13:03:43;;;;;;;1.40;1.30;;;14.60;94.90;;;;;;6186240;23;20020;-94
2023/04/29 13:06:09;;;;;;;1.77;1.50;;;14.60;94.90;;;;;;6185292;23;20079;-96
2023/04/29 13:08:34;;;;;;;1.52;1.10;;;15.10;95.10;;;;;;6184087;23;20052;-93
2023/04/29 13:11:00;;;;;;;1.63;1.25;;;14.70;94.90;;;;;;6182353;23;20013;-94
2023/04/29 13:14:16;;;;;;;1.83;1.40;;;14.60;94.90;;;;;;6183356;23;20064;-95
2023/04/29 13:16:42;;;;;;;1.98;1.70;;;14.60;94.90;;;;;;6163449;23;20009;-95
2023/04/29 13:19:08;;;;;;;2.92;1.40;;;14.60;94.90;;;;;;6185205;23;20001;-94
2023/04/29 13:21:53;;;;;;;4.55;1.40;;;14.60;95.00;;;;;;6111781;23;20037;-96
2023/04/29 13:24:21;;;;;;;6.13;1.50;;;14.60;95.00;;;;;;6159179;23;20005;-92
2023/04/29 13:26:50;;;;;;;2.92;1.58;;;14.60;95.00;;;;;;6137370;23;20037;-94
2023/04/29 13:29:22;;;;;;;1.98;1.60;;;14.60;95.00;;;;;;6187123;23;20005;-96
2023/04/29 13:31:55;;;;;;;1.77;1.42;;;14.60;95.00;;;;;;6183777;23;20001;-96
2023/04/29 13:34:21;;;;;;;3.63;1.67;;;14.50;95.00;;;;;;6183971;23;20008;-95
2023/04/29 13:36:46;;;;;;;1.70;1.40;;;14.50;95.00;;;;;;6135280;23;20505;-93
2023/04/29 13:39:22;;;;;;;6.32;1.77;;;14.50;95.00;;;;;;6184712;23;20051;-96
2023/04/29 13:41:48;;;;;;;2.90;1.90;;;14.70;95.00;;;;;;6185302;23;20001;-93
2023/04/29 13:44:14;;;;;;;3.10;1.77;;;14.50;95.00;;;;;;6186640;23;20100;-94
2023/04/29 13:46:45;;;;;;;3.85;2.45;;;14.50;95.00;;;;;;6163960;23;20005;-95
2023/04/29 13:49:14;;;;;;;4.93;1.90;;;14.50;95.00;;;;;;6190283;23;20036;-96
2023/04/29 13:51:55;;;;;;;2.90;1.70;;;14.50;95.00;;;;;;6135281;23;20021;-96
2023/04/29 13:54:48;;;;;;;;;;;;;;;;;;;;;
2023/04/29 13:57:20;;;;;;;3.42;1.58;;;14.50;95.00;;;;;;6189893;23;20088;-96
2023/04/29 14:00:13;;;;;;;4.22;1.55;;;14.50;95.10;;;;;;6162408;23;20015;-96
2023/04/29 14:02:45;;;;;;;2.22;1.58;;;14.50;95.10;;;;;;6163474;23;20036;-96
2023/04/29 14:05:11;;;;;;;2.67;1.65;;;14.50;95.00;;;;;;6159925;23;20012;-94
2023/04/29 14:07:40;;;;;;;2.63;1.60;;;14.50;95.00;;;;;;6114004;23;20009;-96
2023/04/29 14:10:06;;;;;;;1.67;1.50;;;14.50;95.00;;;;;;6186659;23;20005;-96
2023/04/29 14:12:35;;;;;;;3.97;1.92;;;14.50;95.00;;;;;;6137704;23;20005;-95
2023/04/29 14:15:01;;;;;;;1.67;1.48;;;14.40;95.00;;;;;;6187498;23;20009;-93
2023/04/29 14:17:26;;;;;;;1.70;1.55;;;14.40;95.00;;;;;;6189721;23;20005;-94
2023/04/29 14:19:55;;;;;;;3.45;1.67;;;14.40;95.00;;;;;;6187472;23;19997;-94
2023/04/29 14:22:21;;;;;;;3.63;2.00;;;14.40;95.00;;;;;;6162722;23;20001;-95
2023/04/29 14:24:55;;;;;;;1.42;1.33;;;14.40;95.10;;;;;;6187423;23;20015;-96
2023/04/29 14:27:27;;;;;;;2.83;1.92;;;14.40;95.00;;;;;;6165295;23;20073;-95
2023/04/29 14:29:53;;;;;;;4.55;1.60;;;14.40;95.10;;;;;;6136813;23;20287;-93
2023/04/29 14:32:18;;;;;;;1.70;1.38;;;14.40;95.10;;;;;;6186756;23;20035;-95
2023/04/29 14:34:54;;;;;;;2.78;1.70;;;14.40;95.10;;;;;;6187367;23;20024;-96
2023/04/29 14:37:26;;;;;;;2.95;1.85;;;14.40;95.20;;;;;;6164221;23;20008;-96
2023/04/29 14:39:56;;;;;;;5.82;1.98;;;14.40;95.00;;;;;;6164338;23;20013;-96
2023/04/29 14:42:41;;;;;;;2.95;2.00;;;14.40;95.00;;;;;;6138981;23;20008;-96